• 1
  • 2
  • 1

 

 

 
NEU! ab. 1.4.
Nortel Info 128,740 MHz

WebCam

  
Kamera Halle
Kamera Vorfeld
Wetter EDDS

METAR

EDDS 170520Z VRB01KT 0800 R25/1000VP2000U FZFG FEW001 M03/M03 Q1018 NOSIG =
EDDS 170500Z 1706/1806 VRB03KT 9999 FEW001 SCT035 TEMPO 1706/1709 0500 FZFG BKN001 TEMPO 1709/1712 3000 BR TEMPO 1712/1716 21005KT TEMPO 1720/1806 1500 BCFG


TAF

EDDS 170500Z 1706/1806 VRB03KT 9999 FEW001 SCT035 TEMPO 1706/1709 0500 FZFG BKN001 TEMPO 1709/1712 3000 BR TEMPO 1712/1716 21005KT TEMPO 1720/1806 1500 BCFG =


SR/SS

07:08 / 15:26 UTC
(EDSO 17-12-2018)